createdAt,value
2023-02-11T00:01:25.979Z,1.90
2023-02-11T00:03:54.510Z,1.91
2023-02-11T00:06:23.596Z,1.91
2023-02-11T00:08:51.718Z,1.93
2023-02-11T00:11:20.929Z,1.94
2023-02-11T00:13:48.991Z,1.96
2023-02-11T00:16:20.233Z,1.96
2023-02-11T00:18:49.066Z,1.97
2023-02-11T00:21:19.291Z,1.98
2023-02-11T00:23:47.988Z,1.98
2023-02-11T00:26:18.511Z,1.99
2023-02-11T00:28:48.224Z,1.99
2023-02-11T00:31:17.066Z,1.99
2023-02-11T00:33:45.330Z,1.98
2023-02-11T00:36:15.858Z,1.97
2023-02-11T00:38:48.248Z,1.96
2023-02-11T00:41:16.446Z,1.96
2023-02-11T00:43:47.012Z,1.96
2023-02-11T00:46:15.556Z,1.95
2023-02-11T00:48:44.094Z,1.95
2023-02-11T00:51:12.788Z,1.94
2023-02-11T00:53:41.167Z,1.93
2023-02-11T00:56:09.660Z,1.92
2023-02-11T00:58:38.433Z,1.91
2023-02-11T01:01:07.993Z,1.91
2023-02-11T01:03:36.431Z,1.89
2023-02-11T01:06:06.031Z,1.88
2023-02-11T01:08:34.326Z,1.87
2023-02-11T01:11:06.797Z,1.84
2023-02-11T01:13:37.393Z,1.83
2023-02-11T01:16:08.739Z,1.81
2023-02-11T01:18:37.592Z,1.77
2023-02-11T01:21:06.071Z,1.75
2023-02-11T01:23:34.163Z,1.72
2023-02-11T01:26:02.205Z,1.69
2023-02-11T01:28:30.806Z,1.65
2023-02-11T01:31:01.669Z,1.64
2023-02-11T01:33:30.441Z,1.63
2023-02-11T01:36:04.053Z,1.62
2023-02-11T01:38:32.740Z,1.61
2023-02-11T01:41:07.865Z,1.61
2023-02-11T01:43:37.588Z,1.62
2023-02-11T01:46:36.662Z,1.63
2023-02-11T01:49:10.503Z,1.63
2023-02-11T01:51:44.495Z,1.64
2023-02-11T01:54:33.816Z,1.63
2023-02-11T01:57:21.177Z,1.64
2023-02-11T02:00:04.616Z,1.65
2023-02-11T02:02:55.344Z,1.66
2023-02-11T02:05:37.248Z,1.67
2023-02-11T02:08:21.535Z,1.67
2023-02-11T02:10:54.154Z,1.67
2023-02-11T02:13:23.712Z,1.66
2023-02-11T02:15:54.628Z,1.66
2023-02-11T02:18:25.925Z,1.65
2023-02-11T02:21:31.842Z,1.66
2023-02-11T02:24:19.052Z,1.66
2023-02-11T02:27:12.054Z,1.66
2023-02-11T02:30:02.281Z,1.66
2023-02-11T02:32:33.833Z,1.65
2023-02-11T02:35:23.813Z,1.64
2023-02-11T02:38:26.290Z,1.63
2023-02-11T02:41:10.025Z,1.61
2023-02-11T02:43:41.840Z,1.60
2023-02-11T02:46:39.492Z,1.61
2023-02-11T02:49:14.684Z,1.60
2023-02-11T02:52:00.896Z,1.61
2023-02-11T02:54:50.442Z,1.59
2023-02-11T02:57:43.766Z,1.57
2023-02-11T03:00:30.105Z,1.57
2023-02-11T03:03:09.188Z,1.57
2023-02-11T03:05:51.953Z,1.58
2023-02-11T03:08:53.605Z,1.59
2023-02-11T03:11:23.257Z,1.60
2023-02-11T03:13:51.820Z,1.60
2023-02-11T03:16:23.227Z,1.60
2023-02-11T03:18:58.492Z,1.61
2023-02-11T03:21:26.689Z,1.62
2023-02-11T03:23:56.636Z,1.65
2023-02-11T03:26:49.738Z,1.66
2023-02-11T03:29:21.123Z,1.67
2023-02-11T03:32:12.506Z,1.67
2023-02-11T03:35:04.072Z,1.67
2023-02-11T03:37:35.162Z,1.67
2023-02-11T03:40:06.205Z,1.68
2023-02-11T03:42:40.514Z,1.68
2023-02-11T03:45:10.542Z,1.68
2023-02-11T03:47:43.060Z,1.67
2023-02-11T03:50:11.543Z,1.67
2023-02-11T03:52:40.146Z,1.68
2023-02-11T03:55:11.486Z,1.68
2023-02-11T03:57:40.177Z,1.70
2023-02-11T04:00:09.536Z,1.73
2023-02-11T04:02:41.248Z,1.74
2023-02-11T04:05:11.257Z,1.70
2023-02-11T04:07:39.436Z,1.67
2023-02-11T04:10:08.225Z,1.67
2023-02-11T04:12:36.511Z,1.68
2023-02-11T04:15:05.510Z,1.69
2023-02-11T04:17:33.666Z,1.69
2023-02-11T04:20:01.965Z,1.69
2023-02-11T04:22:30.766Z,1.71
2023-02-11T04:24:58.840Z,1.73
2023-02-11T04:27:27.226Z,1.72
2023-02-11T04:29:55.414Z,1.75
2023-02-11T04:32:24.118Z,1.75
2023-02-11T04:34:52.585Z,1.73
2023-02-11T04:37:21.067Z,1.66
2023-02-11T04:39:49.240Z,1.61
2023-02-11T04:42:17.402Z,1.62
2023-02-11T04:44:45.802Z,1.62
2023-02-11T04:47:15.523Z,1.60
2023-02-11T04:49:43.671Z,1.59
2023-02-11T04:52:12.082Z,1.60
2023-02-11T04:54:40.977Z,1.58
2023-02-11T04:57:10.281Z,1.57
2023-02-11T04:59:38.825Z,1.59
2023-02-11T05:02:07.044Z,1.61
2023-02-11T05:04:35.250Z,1.60
2023-02-11T05:07:03.627Z,1.60
2023-02-11T05:09:35.505Z,1.59
2023-02-11T05:12:04.361Z,1.57
2023-02-11T05:14:33.537Z,1.52
2023-02-11T05:17:02.000Z,1.50
2023-02-11T05:19:32.095Z,1.49
2023-02-11T05:22:03.409Z,1.46
2023-02-11T05:24:32.530Z,1.41
2023-02-11T05:27:01.226Z,1.34
2023-02-11T05:29:29.726Z,1.29
2023-02-11T05:32:00.260Z,1.23
2023-02-11T05:34:28.719Z,1.21
2023-02-11T05:36:56.819Z,1.20
2023-02-11T05:39:25.184Z,1.23
2023-02-11T05:41:53.467Z,1.26
2023-02-11T05:44:21.961Z,1.30
2023-02-11T05:46:50.849Z,1.36
2023-02-11T05:49:19.543Z,1.42
2023-02-11T05:51:47.696Z,1.48
2023-02-11T05:54:16.086Z,1.54
2023-02-11T05:56:44.971Z,1.59
2023-02-11T05:59:16.272Z,1.59
2023-02-11T06:01:44.509Z,1.62
2023-02-11T06:04:13.942Z,1.67
2023-02-11T06:06:42.210Z,1.74
2023-02-11T06:09:12.243Z,1.81
2023-02-11T06:11:40.418Z,1.85
2023-02-11T06:14:13.108Z,1.90
2023-02-11T06:16:42.398Z,1.94
2023-02-11T06:19:11.394Z,1.96
2023-02-11T06:21:44.298Z,1.98
2023-02-11T06:24:12.788Z,1.99
2023-02-11T06:26:41.567Z,1.98
2023-02-11T06:29:10.206Z,2.02
2023-02-11T06:31:40.015Z,2.10
2023-02-11T06:34:09.481Z,2.15
2023-02-11T06:36:41.134Z,2.17
2023-02-11T06:39:09.616Z,2.15
2023-02-11T06:41:37.952Z,2.12
2023-02-11T06:44:06.896Z,2.05
2023-02-11T06:46:35.027Z,2.07
2023-02-11T06:49:03.454Z,2.13
2023-02-11T06:51:31.634Z,2.14
2023-02-11T06:54:00.025Z,2.18
2023-02-11T06:56:28.337Z,2.24
2023-02-11T06:58:56.797Z,2.28
2023-02-11T07:01:25.611Z,2.36
2023-02-11T07:03:53.966Z,2.44
2023-02-11T07:06:25.144Z,2.51
2023-02-11T07:08:55.274Z,2.50
2023-02-11T07:11:29.105Z,2.46
2023-02-11T07:14:01.561Z,2.46
2023-02-11T07:16:30.315Z,2.49
2023-02-11T07:19:03.509Z,2.53
2023-02-11T07:21:31.780Z,2.56
2023-02-11T07:24:00.159Z,2.60
2023-02-11T07:26:29.252Z,2.64
2023-02-11T07:28:58.577Z,2.67
2023-02-11T07:31:28.828Z,2.68
2023-02-11T07:34:00.069Z,2.68
2023-02-11T07:36:30.237Z,2.68
2023-02-11T07:38:58.856Z,2.67
2023-02-11T07:41:27.587Z,2.65
2023-02-11T07:43:56.032Z,2.65
2023-02-11T07:46:26.299Z,2.65
2023-02-11T07:48:55.188Z,2.65
2023-02-11T07:51:25.540Z,2.65
2023-02-11T07:53:54.277Z,2.65
2023-02-11T07:56:22.768Z,2.68
2023-02-11T07:58:51.155Z,2.67
2023-02-11T08:01:26.083Z,2.69
2023-02-11T08:03:55.139Z,2.73
2023-02-11T08:06:24.359Z,2.80
2023-02-11T08:08:52.571Z,2.88
2023-02-11T08:11:22.693Z,2.95
2023-02-11T08:13:51.482Z,3.00
2023-02-11T08:16:24.348Z,3.04
2023-02-11T08:18:53.189Z,3.05
2023-02-11T08:21:21.533Z,2.98
2023-02-11T08:23:49.895Z,3.03
2023-02-11T08:26:26.034Z,3.09
2023-02-11T08:28:55.690Z,3.13
2023-02-11T08:31:28.961Z,3.16
2023-02-11T08:34:00.333Z,3.12
2023-02-11T08:36:30.667Z,3.12
2023-02-11T08:39:18.077Z,3.17
2023-02-11T08:41:52.367Z,3.21
2023-02-11T08:44:21.280Z,3.24
2023-02-11T08:46:50.393Z,3.25
2023-02-11T08:49:20.631Z,3.30
2023-02-11T08:51:49.003Z,3.33
2023-02-11T08:54:17.487Z,3.36
2023-02-11T08:56:45.714Z,3.35
2023-02-11T08:59:15.568Z,3.30
2023-02-11T09:01:44.547Z,3.32
2023-02-11T09:04:14.795Z,3.37
2023-02-11T09:06:43.550Z,3.47
2023-02-11T09:09:13.766Z,3.54
2023-02-11T09:11:42.720Z,3.59
2023-02-11T09:14:22.475Z,3.63
2023-02-11T09:16:51.846Z,3.58
2023-02-11T09:19:25.576Z,3.52
2023-02-11T09:21:54.525Z,3.49
2023-02-11T09:24:22.881Z,3.43
2023-02-11T09:26:51.245Z,3.37
2023-02-11T09:29:19.520Z,3.33
2023-02-11T09:31:48.808Z,3.26
2023-02-11T09:34:17.628Z,3.27
2023-02-11T09:36:46.012Z,3.29
2023-02-11T09:39:18.063Z,3.29
2023-02-11T09:42:19.110Z,3.26
2023-02-11T09:44:48.409Z,3.24
2023-02-11T09:47:36.661Z,3.24
2023-02-11T09:50:19.686Z,3.28
2023-02-11T09:52:54.838Z,3.29
2023-02-11T09:55:42.755Z,3.29
2023-02-11T09:58:14.398Z,3.30
2023-02-11T10:00:48.609Z,3.32
2023-02-11T10:03:35.371Z,3.33
2023-02-11T10:06:25.655Z,3.29
2023-02-11T10:09:03.979Z,3.32
2023-02-11T10:11:35.476Z,3.36
2023-02-11T10:14:07.518Z,3.39
2023-02-11T10:17:10.027Z,3.43
2023-02-11T10:19:55.761Z,3.47
2023-02-11T10:22:39.910Z,3.52
2023-02-11T10:25:25.175Z,3.48
2023-02-11T10:27:57.227Z,3.49
2023-02-11T10:30:33.434Z,3.54
2023-02-11T10:33:32.619Z,3.53
2023-02-11T10:36:01.163Z,3.54
2023-02-11T10:38:29.696Z,3.59
2023-02-11T10:40:57.973Z,3.62
2023-02-11T10:43:27.968Z,3.68
2023-02-11T10:45:56.542Z,3.75
2023-02-11T10:48:51.716Z,3.77
2023-02-11T10:51:29.415Z,3.77
2023-02-11T10:54:19.521Z,3.80
2023-02-11T10:56:52.942Z,3.86
2023-02-11T10:59:40.552Z,3.90
2023-02-11T11:02:23.445Z,3.95
2023-02-11T11:04:56.139Z,3.99
2023-02-11T11:07:27.448Z,4.00
2023-02-11T11:10:03.133Z,4.04
2023-02-11T11:12:36.484Z,4.01
2023-02-11T11:15:11.379Z,3.92
2023-02-11T11:17:45.200Z,3.88
2023-02-11T11:20:19.501Z,3.86
2023-02-11T11:22:48.900Z,3.81
2023-02-11T11:25:29.767Z,3.77
2023-02-11T11:27:59.266Z,3.71
2023-02-11T11:30:32.091Z,3.64
2023-02-11T11:33:00.283Z,3.61
2023-02-11T11:35:30.067Z,3.60
2023-02-11T11:38:03.499Z,3.61
2023-02-11T11:40:33.274Z,3.68
2023-02-11T11:43:14.248Z,3.76
2023-02-11T11:45:56.880Z,3.83
2023-02-11T11:48:42.839Z,3.85
2023-02-11T11:51:11.663Z,3.84
2023-02-11T11:54:00.778Z,3.82
2023-02-11T11:56:31.103Z,3.82
2023-02-11T11:59:01.055Z,3.86
2023-02-11T12:01:57.559Z,3.93
2023-02-11T12:04:33.070Z,3.98
2023-02-11T12:07:12.139Z,3.98
2023-02-11T12:09:54.406Z,3.94
2023-02-11T12:12:54.945Z,3.85
2023-02-11T12:15:42.941Z,3.69
2023-02-11T12:18:39.705Z,3.60
2023-02-11T12:21:43.285Z,3.63
2023-02-11T12:24:38.326Z,3.60
2023-02-11T12:27:13.272Z,3.60
2023-02-11T12:30:04.861Z,3.61
2023-02-11T12:33:17.966Z,3.60
2023-02-11T12:35:46.311Z,3.63
2023-02-11T12:38:39.877Z,3.67
2023-02-11T12:42:10.017Z,3.70
2023-02-11T12:45:03.520Z,3.81
2023-02-11T12:48:00.865Z,3.93
2023-02-11T12:50:32.971Z,3.96
2023-02-11T12:53:23.109Z,3.99
2023-02-11T12:55:56.434Z,4.01
2023-02-11T12:58:35.609Z,4.03
2023-02-11T13:01:18.135Z,4.04
2023-02-11T13:03:52.155Z,4.00
2023-02-11T13:06:24.230Z,3.97
2023-02-11T13:09:00.036Z,3.99
2023-02-11T13:11:39.311Z,4.05
2023-02-11T13:14:26.330Z,4.03
2023-02-11T13:16:55.407Z,3.96
2023-02-11T13:19:35.013Z,3.96
2023-02-11T13:22:13.880Z,3.87
2023-02-11T13:24:44.645Z,3.82
2023-02-11T13:27:23.770Z,3.83
2023-02-11T13:30:47.110Z,3.84
2023-02-11T13:33:18.440Z,3.77
2023-02-11T13:35:56.425Z,3.69
2023-02-11T13:38:27.738Z,3.66
2023-02-11T13:41:04.484Z,3.62
2023-02-11T13:43:36.055Z,3.53
2023-02-11T13:46:10.387Z,3.50
2023-02-11T13:48:50.075Z,3.47
2023-02-11T13:51:32.784Z,3.46
2023-02-11T13:54:01.270Z,3.48
2023-02-11T13:56:36.592Z,3.49
2023-02-11T13:59:26.688Z,3.53
2023-02-11T14:02:36.362Z,3.59
2023-02-11T14:05:23.242Z,3.67
2023-02-11T14:08:28.458Z,3.73
2023-02-11T14:10:58.855Z,3.80
2023-02-11T14:14:01.649Z,3.84
2023-02-11T14:16:37.845Z,3.90
2023-02-11T14:19:10.020Z,3.94
2023-02-11T14:21:40.890Z,3.94
2023-02-11T14:24:13.261Z,3.94
2023-02-11T14:26:59.602Z,3.94
2023-02-11T14:29:52.330Z,3.95
2023-02-11T14:32:34.407Z,3.93
2023-02-11T14:35:13.245Z,3.88
2023-02-11T14:37:59.843Z,3.81
2023-02-11T14:40:33.537Z,3.73
2023-02-11T14:43:08.290Z,3.67
2023-02-11T14:45:36.974Z,3.64
2023-02-11T14:48:08.592Z,3.61
2023-02-11T14:50:53.308Z,3.58
2023-02-11T14:53:23.007Z,3.51
2023-02-11T14:55:55.930Z,3.46
2023-02-11T14:58:30.136Z,3.43
2023-02-11T15:01:06.674Z,3.41
2023-02-11T15:03:41.993Z,3.38
2023-02-11T15:06:19.142Z,3.37
2023-02-11T15:08:50.343Z,3.37
2023-02-11T15:11:20.773Z,3.37
2023-02-11T15:13:50.520Z,3.35
2023-02-11T15:16:26.317Z,3.33
2023-02-11T15:18:57.077Z,3.31
2023-02-11T15:21:30.479Z,3.31
2023-02-11T15:24:03.712Z,3.31
2023-02-11T15:26:32.363Z,3.30
2023-02-11T15:29:01.099Z,3.29
2023-02-11T15:31:31.742Z,3.27
2023-02-11T15:34:08.461Z,3.25
2023-02-11T15:36:37.968Z,3.25
2023-02-11T15:39:18.649Z,3.25
2023-02-11T15:41:47.083Z,3.26
2023-02-11T15:44:29.589Z,3.25
2023-02-11T15:46:57.809Z,3.24
2023-02-11T15:49:26.400Z,3.23
2023-02-11T15:51:55.393Z,3.21
2023-02-11T15:54:29.496Z,3.18
2023-02-11T15:57:05.055Z,3.14
2023-02-11T15:59:39.296Z,3.13
2023-02-11T16:02:33.035Z,3.14
2023-02-11T16:05:04.942Z,3.14
2023-02-11T16:07:52.114Z,3.14
2023-02-11T16:10:32.318Z,3.15
2023-02-11T16:13:06.471Z,3.16
2023-02-11T16:16:02.486Z,3.20
2023-02-11T16:18:39.814Z,3.23
2023-02-11T16:21:15.893Z,3.23
2023-02-11T16:23:49.330Z,3.24
2023-02-11T16:26:27.596Z,3.24
2023-02-11T16:29:04.723Z,3.23
2023-02-11T16:31:41.240Z,3.23
2023-02-11T16:34:17.193Z,3.23
2023-02-11T16:36:46.663Z,3.23
2023-02-11T16:39:15.141Z,3.18
2023-02-11T16:41:43.741Z,3.16
2023-02-11T16:44:12.126Z,3.16
2023-02-11T16:46:41.158Z,3.18
2023-02-11T16:49:10.379Z,3.16
2023-02-11T16:51:39.736Z,3.16
2023-02-11T16:54:12.060Z,3.17
2023-02-11T16:56:41.023Z,3.18
2023-02-11T16:59:10.090Z,3.18
2023-02-11T17:01:39.422Z,3.21
2023-02-11T17:04:11.922Z,3.20
2023-02-11T17:06:40.117Z,3.18
2023-02-11T17:09:15.861Z,3.17
2023-02-11T17:11:45.102Z,3.19
2023-02-11T17:14:13.598Z,3.21
2023-02-11T17:16:42.546Z,3.24
2023-02-11T17:19:15.899Z,3.26
2023-02-11T17:21:48.326Z,3.26
2023-02-11T17:24:16.639Z,3.26
2023-02-11T17:26:45.006Z,3.25
2023-02-11T17:29:15.558Z,3.24
2023-02-11T17:31:44.020Z,3.25
2023-02-11T17:34:12.330Z,3.25
2023-02-11T17:36:41.731Z,3.26
2023-02-11T17:39:10.698Z,3.27
2023-02-11T17:41:39.343Z,3.28
2023-02-11T17:44:12.231Z,3.30
2023-02-11T17:46:40.991Z,3.32
2023-02-11T17:49:12.101Z,3.32
2023-02-11T17:51:43.675Z,3.33
2023-02-11T17:54:13.920Z,3.33
2023-02-11T17:56:42.368Z,3.33
2023-02-11T17:59:11.407Z,3.33
2023-02-11T18:01:40.298Z,3.32
2023-02-11T18:04:13.857Z,3.32
2023-02-11T18:06:42.599Z,3.32
2023-02-11T18:09:11.492Z,3.32
2023-02-11T18:11:41.127Z,3.31
2023-02-11T18:14:10.522Z,3.32
2023-02-11T18:16:43.144Z,3.32
2023-02-11T18:19:11.990Z,3.32
2023-02-11T18:21:41.746Z,3.33
2023-02-11T18:24:10.221Z,3.32
2023-02-11T18:26:38.742Z,3.31
2023-02-11T18:29:07.461Z,3.32
2023-02-11T18:31:35.802Z,3.32
2023-02-11T18:34:06.075Z,3.33
2023-02-11T18:36:34.226Z,3.34
2023-02-11T18:39:02.458Z,3.34
2023-02-11T18:41:30.778Z,3.34
2023-02-11T18:44:03.171Z,3.34
2023-02-11T18:46:31.894Z,3.35
2023-02-11T18:49:00.365Z,3.33
2023-02-11T18:51:28.841Z,3.33
2023-02-11T18:53:57.318Z,3.32
2023-02-11T18:56:27.918Z,3.32
2023-02-11T18:58:58.210Z,3.31
2023-02-11T19:01:27.599Z,3.32
2023-02-11T19:03:58.167Z,3.32
2023-02-11T19:06:27.862Z,3.31
2023-02-11T19:09:02.584Z,3.27
2023-02-11T19:11:47.482Z,3.24
2023-02-11T19:14:17.827Z,3.22
2023-02-11T19:16:46.511Z,3.20
2023-02-11T19:19:14.763Z,3.18
2023-02-11T19:21:44.248Z,3.17
2023-02-11T19:24:13.094Z,3.16
2023-02-11T19:26:41.423Z,3.14
2023-02-11T19:29:09.475Z,3.10
2023-02-11T19:31:37.727Z,3.08
2023-02-11T19:34:07.558Z,3.07
2023-02-11T19:36:35.672Z,3.06
2023-02-11T19:39:04.670Z,3.07
2023-02-11T19:41:33.794Z,3.06
2023-02-11T19:44:02.257Z,3.05
2023-02-11T19:46:33.065Z,3.04
2023-02-11T19:49:01.384Z,3.02
2023-02-11T19:51:31.093Z,2.98
2023-02-11T19:54:00.456Z,2.95
2023-02-11T19:56:29.347Z,2.94
2023-02-11T19:58:58.115Z,2.91
2023-02-11T20:01:26.358Z,2.87
2023-02-11T20:03:55.246Z,2.82
2023-02-11T20:06:25.687Z,2.78
2023-02-11T20:09:01.037Z,2.73
2023-02-11T20:11:30.474Z,2.70
2023-02-11T20:13:59.438Z,2.67
2023-02-11T20:16:46.978Z,2.64
2023-02-11T20:19:21.744Z,2.63
2023-02-11T20:21:55.633Z,2.64
2023-02-11T20:24:24.788Z,2.66
2023-02-11T20:26:56.193Z,2.67
2023-02-11T20:29:25.582Z,2.67
2023-02-11T20:31:56.034Z,2.66
2023-02-11T20:34:25.309Z,2.65
2023-02-11T20:36:54.215Z,2.67
2023-02-11T20:39:24.209Z,2.69
2023-02-11T20:41:53.484Z,2.71
2023-02-11T20:44:22.542Z,2.70
2023-02-11T20:46:51.604Z,2.68
2023-02-11T20:49:21.598Z,2.65
2023-02-11T20:51:51.377Z,2.63
2023-02-11T20:54:20.238Z,2.62
2023-02-11T20:56:54.061Z,2.59
2023-02-11T20:59:22.649Z,2.56
2023-02-11T21:01:55.647Z,2.55
2023-02-11T21:04:26.075Z,2.54
2023-02-11T21:06:56.377Z,2.52
2023-02-11T21:09:27.273Z,2.54
2023-02-11T21:11:57.042Z,2.56
2023-02-11T21:14:26.960Z,2.58
2023-02-11T21:16:55.124Z,2.60
2023-02-11T21:19:23.626Z,2.61
2023-02-11T21:21:51.923Z,2.60
2023-02-11T21:24:20.084Z,2.58
2023-02-11T21:26:49.084Z,2.54
2023-02-11T21:29:17.462Z,2.52
2023-02-11T21:31:46.359Z,2.49
2023-02-11T21:34:16.222Z,2.48
2023-02-11T21:36:45.388Z,2.47
2023-02-11T21:39:14.063Z,2.47
2023-02-11T21:41:42.590Z,2.47
2023-02-11T21:44:13.082Z,2.46
2023-02-11T21:46:42.680Z,2.46
2023-02-11T21:49:12.006Z,2.46
2023-02-11T21:51:40.999Z,2.45
2023-02-11T21:54:10.841Z,2.47
2023-02-11T21:56:40.844Z,2.49
2023-02-11T21:59:11.740Z,2.52
2023-02-11T22:01:41.083Z,2.54
2023-02-11T22:04:09.743Z,2.57
2023-02-11T22:06:40.421Z,2.60
2023-02-11T22:09:09.108Z,2.60
2023-02-11T22:11:37.740Z,2.59
2023-02-11T22:14:06.079Z,2.56
2023-02-11T22:16:35.818Z,2.53
2023-02-11T22:19:06.214Z,2.50
2023-02-11T22:21:34.725Z,2.49
2023-02-11T22:24:03.013Z,2.47
2023-02-11T22:26:34.633Z,2.47
2023-02-11T22:29:03.351Z,2.47
2023-02-11T22:31:33.966Z,2.47
2023-02-11T22:34:03.060Z,2.46
2023-02-11T22:36:37.413Z,2.45
2023-02-11T22:39:09.820Z,2.44
2023-02-11T22:41:39.189Z,2.44
2023-02-11T22:44:08.366Z,2.44
2023-02-11T22:46:36.748Z,2.42
2023-02-11T22:49:05.231Z,2.39
2023-02-11T22:51:33.823Z,2.37
2023-02-11T22:54:03.369Z,2.35
2023-02-11T22:56:32.373Z,2.33
2023-02-11T22:59:01.831Z,2.31
2023-02-11T23:01:30.195Z,2.31
2023-02-11T23:04:02.895Z,2.30
2023-02-11T23:06:31.488Z,2.31
2023-02-11T23:08:59.969Z,2.33
2023-02-11T23:11:29.328Z,2.34
2023-02-11T23:14:00.201Z,2.35
2023-02-11T23:16:31.489Z,2.36
2023-02-11T23:19:00.766Z,2.38
2023-02-11T23:21:30.804Z,2.40
2023-02-11T23:24:00.547Z,2.41
2023-02-11T23:26:29.094Z,2.44
2023-02-11T23:28:59.305Z,2.46
2023-02-11T23:31:37.951Z,2.47
2023-02-11T23:34:07.073Z,2.48
2023-02-11T23:36:36.648Z,2.50
2023-02-11T23:39:05.143Z,2.51
2023-02-11T23:41:34.951Z,2.54
2023-02-11T23:44:03.646Z,2.55
2023-02-11T23:46:33.092Z,2.57
2023-02-11T23:49:02.698Z,2.59
2023-02-11T23:51:32.272Z,2.60
2023-02-11T23:54:01.785Z,2.62
2023-02-11T23:56:30.777Z,2.64
2023-02-11T23:58:59.467Z,2.66
